Jacksonville, FL (32099)

7:48 PM EDT on May 24, 2017 (GMT -0400)
Normandy Heights 32205 | | Change Station

Elev 20 ft 30.30 °N, 81.76 °W | Updated 13 seconds ago

Overcast
Overcast
72.9 °F
Feels Like 72.9 °F
N
4.5
Wind Variable Wind from SSW
Gusts 7.4 mph

Today
High -- | Low -- °F
--% Chance of Precip.
Yesterday
High -- | Low -- °F
Precip. -- in
Pressure 29.57 in
Visibility 8.0 miles
Clouds Few 1000 ft
Few 4500 ft
Overcast 12000 ft
Dew Point 70 °F
Humidity 92%
Rainfall 2.26 in
Snow Depth Not available.
6:28 AM 8:20 PM
Waning Crescent, 1% visible
METAR KNIP 242253Z 19010KT 8SM -RA FEW010 FEW045 OVC120 23/21 A2958 RMK AO2 SLP013 P0000 T02330206 $
Pressure 29.57 in
Visibility 8.0 miles
Clouds Few 1000 ft
Few 4500 ft
Overcast 12000 ft
Dew Point 70 °F
Humidity 92%
Rainfall 2.26 in
Snow Depth Not available.
6:28 AM 8:20 PM
Waning Crescent, 1% visible
METAR KNIP 242253Z 19010KT 8SM -RA FEW010 FEW045 OVC120 23/21 A2958 RMK AO2 SLP013 P0000 T02330206 $

Get Severe Weather Alerts

Thanks for signing up!

Be on the lookout for a verification email in your inbox.

You'll start receiving the daily forecast at 6 AM.

×

10-Day Weather Forecast

Almanac

Astronomy

May. 24, 2017 Rise Set
Actual Time
Civil Twilight
Nautical Twilight
Astronomical Twilight
Moon
Length of Visible Light
Length of Day
Tomorrow will be .
, % of the Moon is Illuminated

Today's Extremes

State Highs State Lows

Community

WunderPhotos

Category 6

Welcome to Category 6. This is the collective home for Weather Underground's featured writeups by Dr. Jeff Masters (right), Bob Henson (left), Chris Burt, and other regular contributors.

Nearby

Air Quality

  Air Quality AQ Index Pollutant
Not available.

Snow Depth

Station Depth Elevation

Earthquake Activity

City Distance Mag. Time & Date
Minimum magnitude displayed is 2.5.

Coastal Water Temperatures

Place Temperature

Stations

Nearby Weather Stations

Station Location Temp. Windchill Dew Point Humidity Wind Precip. Elev Updated Type
                   

Watches & Warnings

There are currently no watches in effect.